Flight Track Log - Related Links

Times and Time Zones

All times are in EDT time to prevent confusion due to time zone crossing. See the ASQ5845 flight status page for this flight to view local times or setup timezone preferences in your user account.

Time Position Orientation Groundspeed Altitude Reporting Facility
EDT Latitude Longitude Course Direction KTS MPH feet Rate Location/Type
Fri 06:43:09 PM 38.9167 -77.5333 210° Southwest 198 228 2,200  Level Potomac TRACON
Fri 06:44:09 PM 38.8500 -77.5833 207° Southwest 239 275 4,600 2,331 Climbing Potomac TRACON
Fri 06:45:10 PM 38.8000 -77.6167 198° South 255 293 6,900 2,040 Climbing Potomac TRACON
Fri 06:45:49 PM 38.7522 -77.6361 211° Southwest 261 300 8,000 1,918 Climbing Washington Center
Fri 06:46:47 PM 38.6950 -77.6797 208° Southwest 274 315 10,000 1,729 Climbing Washington Center
Fri 06:47:47 PM 38.6214 -77.7308 207° Southwest 299 344 11,400 1,537 Climbing Washington Center
Fri 06:48:48 PM 38.5411 -77.7842 211° Southwest 317 365 13,100 1,736 Climbing Washington Center
Fri 06:49:48 PM 38.4650 -77.8431 222° Southwest 322 371 14,900 1,160 Climbing Washington Center
Fri 06:51:49 PM 38.3242 -78.0028 223° Southwest 337 388 16,600 905 Climbing Washington Center
Fri 06:52:47 PM 38.2494 -78.0928 223° Southwest 352 405 17,600 1,059 Climbing Washington Center
Fri 06:53:48 PM 38.1722 -78.1856 222° Southwest 369 425 18,700 1,041 Climbing Washington Center
Fri 06:54:48 PM 38.0933 -78.2750 224° Southwest 379 436 19,700 1,091 Climbing Washington Center
Fri 06:55:49 PM 38.0094 -78.3775 222° Southwest 384 442 20,900 1,091 Climbing Washington Center
Fri 06:56:49 PM 37.9281 -78.4692 224° Southwest 384 442 21,900 559 Climbing Washington Center
Fri 06:57:47 PM 37.8464 -78.5686 222° Southwest 390 449 22,000 51 Climbing Washington Center
Fri 06:58:47 PM 37.7583 -78.6678 222° Southwest 407 468 22,000  Level Washington Center
Fri 06:59:48 PM 37.6833 -78.7539 221° Southwest 412 474 22,000  Level Washington Center
Fri 07:00:49 PM 37.5972 -78.8497 222° Southwest 412 474 22,000  Level Washington Center
Fri 07:01:49 PM 37.5111 -78.9483 221° Southwest 412 474 22,000  Level Washington Center
Fri 07:02:47 PM 37.4228 -79.0464 221° Southwest 417 480 22,000  Level Washington Center
Fri 07:03:47 PM 37.3364 -79.1417 224° Southwest 417 480 22,000  Level Washington Center
Fri 07:04:47 PM 37.2522 -79.2422 229° Southwest 422 486 22,000  Level Washington Center
Fri 07:05:49 PM 37.1711 -79.3608 230° Southwest 416 479 22,000  Level Washington Center
Fri 07:06:47 PM 37.0947 -79.4742 228° Southwest 424 488 22,000 -508 Level Washington Center
Fri 07:07:47 PM 37.0181 -79.5822 231° Southwest 424 488 21,000 -1,426 Descending Washington Center
Fri 07:08:49 PM 36.9497 -79.6881 203° Southwest 413 475 19,100 -1,839 Descending Washington Center
Fri 07:16:15 PM 36.3808 -79.9885 177° South  Level FlightAware Approximate
Fri 07:17:15 PM 36.2878 -79.9833 177° South  Level FlightAware Approximate
Fri 07:18:15 PM 36.1946 -79.9768 176° South  Level FlightAware Approximate
Fri 07:19:15 PM 36.1048 -79.9690 175° South  Level FlightAware Approximate
Fri 07:20:15 PM 36.0542 -79.9639 175° South  Level FlightAware Approximate

Login

Don't have an account? Register now (free) for customized features, flight alerts, and more!